Time;durP1;ratioP1;P1;durP2;ratioP2;P2;SDS_P1;SDS_P2;PMS_P1;PMS_P2;Temp;Humidity;BMP_temperature;BMP_pressure;BME280_temperature;BME280_humidity;BME280_pressure;Samples;Min_cycle;Max_cycle;Signal;HPM_P1;HPM_P2
2022/08/25 00:01:22;;;;;;;10.82;5.70;;;21.30;98.80;;;;;;5019112;28;20051;-60
2022/08/25 00:03:48;;;;;;;7.65;5.53;;;21.30;98.60;;;;;;5019650;28;20108;-59
2022/08/25 00:06:14;;;;;;;6.30;5.25;;;21.30;98.40;;;;;;5005839;28;20108;-57
2022/08/25 00:08:41;;;;;;;13.95;5.28;;;21.30;98.40;;;;;;5019199;28;20508;-60
2022/08/25 00:11:13;;;;;;;7.65;4.80;;;21.40;97.90;;;;;;5020388;28;20389;-59
2022/08/25 00:13:44;;;;;;;6.60;4.30;;;21.40;97.60;;;;;;5019159;28;20106;-59
2022/08/25 00:16:12;;;;;;;7.65;4.72;;;21.40;97.40;;;;;;5020369;28;20563;-59
2022/08/25 00:18:41;;;;;;;7.45;4.55;;;21.40;97.10;;;;;;5018267;28;20045;-59
2022/08/25 00:21:07;;;;;;;12.02;4.80;;;21.40;96.90;;;;;;5005570;28;20572;-59
2022/08/25 00:23:33;;;;;;;5.85;4.50;;;21.40;96.70;;;;;;5018229;28;20459;-60
2022/08/25 00:26:00;;;;;;;7.40;4.50;;;21.40;96.50;;;;;;5019560;28;20064;-58
2022/08/25 00:28:26;;;;;;;9.68;4.35;;;21.40;96.30;;;;;;5020092;28;20052;-59
2022/08/25 00:30:52;;;;;;;5.88;4.25;;;21.40;96.00;;;;;;5021160;28;20046;-58
2022/08/25 00:33:18;;;;;;;7.55;4.13;;;21.50;95.80;;;;;;5018869;28;20079;-60
2022/08/25 00:35:44;;;;;;;10.15;4.38;;;21.50;95.60;;;;;;5018846;28;20152;-59
2022/08/25 00:38:10;;;;;;;7.72;4.00;;;21.50;95.40;;;;;;5035636;28;20048;-59
2022/08/25 00:40:38;;;;;;;8.80;4.57;;;21.40;95.20;;;;;;5022502;28;20148;-59
2022/08/25 00:43:05;;;;;;;8.00;3.92;;;21.50;95.10;;;;;;5024993;28;20064;-60
2022/08/25 00:45:32;;;;;;;7.75;4.13;;;21.50;94.90;;;;;;5023564;28;20037;-59
2022/08/25 00:47:58;;;;;;;8.32;4.05;;;21.50;94.80;;;;;;5023597;28;20046;-59
2022/08/25 00:50:24;;;;;;;10.02;3.70;;;21.40;94.70;;;;;;5022685;28;20037;-59
2022/08/25 00:52:53;;;;;;;8.40;4.10;;;21.40;94.50;;;;;;5022480;28;20784;-60
2022/08/25 00:55:25;;;;;;;5.65;4.05;;;21.40;94.30;;;;;;5023605;28;20065;-59
2022/08/25 00:58:01;;;;;;;7.80;3.83;;;21.40;94.20;;;;;;5024409;28;20057;-59
2022/08/25 01:00:40;;;;;;;8.52;4.10;;;21.40;94.00;;;;;;5023822;28;20698;-59
2022/08/25 01:03:06;;;;;;;6.80;3.58;;;21.50;93.90;;;;;;5022861;28;20061;-58
2022/08/25 01:05:32;;;;;;;8.90;3.80;;;21.40;93.80;;;;;;5021208;28;20041;-59
2022/08/25 01:08:01;;;;;;;9.65;3.97;;;21.50;93.70;;;;;;5022801;28;20038;-59
2022/08/25 01:10:29;;;;;;;8.02;3.72;;;21.50;93.60;;;;;;5022673;28;20441;-58
2022/08/25 01:13:04;;;;;;;11.32;4.43;;;21.50;93.50;;;;;;5024335;28;20048;-59
2022/08/25 01:15:30;;;;;;;4.80;3.47;;;21.50;93.30;;;;;;5022021;28;20107;-59
2022/08/25 01:17:57;;;;;;;8.93;3.85;;;21.40;93.20;;;;;;5021781;28;20541;-59
2022/08/25 01:20:26;;;;;;;7.85;3.60;;;21.50;93.20;;;;;;5022514;28;20053;-59
2022/08/25 01:22:53;;;;;;;6.32;3.95;;;21.40;93.10;;;;;;5022131;28;20127;-59
2022/08/25 01:25:46;;;;;;;11.98;3.70;;;21.40;93.00;;;;;;5024243;28;20073;-59
2022/08/25 01:28:13;;;;;;;10.20;3.88;;;21.40;92.90;;;;;;5022803;28;20045;-58
2022/08/25 01:30:39;;;;;;;13.10;3.70;;;21.40;92.90;;;;;;5020421;28;20096;-60
2022/08/25 01:33:08;;;;;;;7.80;3.75;;;21.30;92.90;;;;;;5023137;28;20053;-59
2022/08/25 01:35:35;;;;;;;7.63;4.10;;;21.30;92.80;;;;;;5021753;28;20656;-59
2022/08/25 01:38:03;;;;;;;10.65;4.00;;;21.30;92.80;;;;;;5021148;28;20053;-59
2022/08/25 01:40:30;;;;;;;8.35;3.70;;;21.20;92.80;;;;;;5022153;28;20052;-59
2022/08/25 01:43:17;;;;;;;8.63;3.70;;;21.20;92.70;;;;;;5023880;28;20143;-60
2022/08/25 01:45:46;;;;;;;13.63;3.85;;;21.20;92.60;;;;;;5021571;28;20382;-59
2022/08/25 01:48:13;;;;;;;7.40;3.47;;;21.20;92.50;;;;;;5020788;28;20495;-59
2022/08/25 01:50:40;;;;;;;8.68;4.57;;;21.20;92.40;;;;;;5021484;28;20037;-59
2022/08/25 01:53:23;;;;;;;8.07;3.80;;;21.20;92.40;;;;;;5021964;28;20085;-59
2022/08/25 01:55:52;;;;;;;10.68;3.97;;;21.20;92.20;;;;;;5022867;28;20050;-60
2022/08/25 01:58:21;;;;;;;7.50;3.72;;;21.20;92.20;;;;;;5022255;28;20050;-58
2022/08/25 02:00:49;;;;;;;7.72;3.80;;;21.20;92.10;;;;;;5021934;28;20103;-60
2022/08/25 02:03:17;;;;;;;6.55;3.80;;;21.10;92.10;;;;;;5022291;28;20160;-59
2022/08/25 02:05:43;;;;;;;9.15;3.38;;;21.10;92.00;;;;;;5018380;28;20078;-59
2022/08/25 02:08:10;;;;;;;9.23;3.80;;;21.10;92.00;;;;;;5004978;28;20147;-58
2022/08/25 02:10:37;;;;;;;7.65;3.70;;;21.10;91.90;;;;;;5022716;28;20041;-59
2022/08/25 02:13:04;;;;;;;6.38;3.45;;;21.10;91.90;;;;;;5021855;28;20549;-58
2022/08/25 02:15:30;;;;;;;4.75;3.17;;;21.10;91.80;;;;;;5037046;28;20255;-59
2022/08/25 02:17:56;;;;;;;9.55;3.65;;;21.00;91.80;;;;;;5021257;28;20049;-59
2022/08/25 02:20:23;;;;;;;6.63;3.45;;;21.00;91.80;;;;;;5019907;28;20049;-58
2022/08/25 02:22:52;;;;;;;7.88;3.47;;;21.00;91.90;;;;;;5022468;28;20053;-60
2022/08/25 02:25:19;;;;;;;6.57;3.38;;;20.90;91.90;;;;;;5021282;28;20591;-59
2022/08/25 02:27:45;;;;;;;8.18;3.50;;;21.00;91.90;;;;;;5022556;28;20095;-59
2022/08/25 02:30:13;;;;;;;7.70;3.60;;;20.90;91.90;;;;;;5022321;28;20392;-59
2022/08/25 02:32:39;;;;;;;7.20;3.17;;;20.90;91.90;;;;;;5022184;28;20103;-59
2022/08/25 02:35:07;;;;;;;9.20;4.20;;;20.90;92.00;;;;;;5021084;28;20404;-59
2022/08/25 02:37:33;;;;;;;9.07;3.70;;;20.80;92.00;;;;;;5023755;28;20038;-58
2022/08/25 02:39:59;;;;;;;6.35;3.40;;;20.80;92.00;;;;;;5021414;28;20049;-58
2022/08/25 02:42:25;;;;;;;7.25;3.47;;;20.80;92.00;;;;;;5021743;28;20104;-59
2022/08/25 02:44:52;;;;;;;6.30;3.72;;;20.80;92.00;;;;;;5021748;28;20613;-59
2022/08/25 02:47:18;;;;;;;8.32;3.83;;;20.70;92.00;;;;;;5021018;28;20041;-59
2022/08/25 02:49:44;;;;;;;8.20;3.50;;;20.70;92.00;;;;;;5020565;28;20603;-59
2022/08/25 02:52:10;;;;;;;5.90;3.65;;;20.70;92.00;;;;;;5022248;28;20065;-59
2022/08/25 02:54:36;;;;;;;9.02;3.78;;;20.70;92.00;;;;;;5021345;28;20045;-59
2022/08/25 02:57:02;;;;;;;7.82;3.33;;;20.60;91.90;;;;;;5020580;28;20053;-58
2022/08/25 02:59:29;;;;;;;5.45;3.90;;;20.60;92.00;;;;;;5020813;28;20127;-60
2022/08/25 03:01:55;;;;;;;12.80;3.92;;;20.60;91.90;;;;;;5021825;28;20512;-58
2022/08/25 03:04:21;;;;;;;6.88;3.40;;;20.60;91.90;;;;;;5021487;28;20047;-59
2022/08/25 03:06:47;;;;;;;7.55;3.65;;;20.60;91.90;;;;;;5020998;28;20537;-59
2022/08/25 03:09:14;;;;;;;7.95;3.58;;;20.60;91.90;;;;;;5022028;28;20124;-60
2022/08/25 03:11:40;;;;;;;5.65;3.65;;;20.50;91.80;;;;;;5020925;28;20480;-59
2022/08/25 03:14:08;;;;;;;6.18;3.78;;;20.50;91.80;;;;;;5020861;28;20498;-59
2022/08/25 03:16:34;;;;;;;7.43;3.83;;;20.50;91.80;;;;;;5022488;28;20057;-59
2022/08/25 03:19:00;;;;;;;6.78;3.50;;;20.50;91.80;;;;;;5022005;28;20587;-58
2022/08/25 03:21:28;;;;;;;11.63;4.00;;;20.50;91.80;;;;;;5021244;28;20060;-59
2022/08/25 03:23:54;;;;;;;4.78;3.80;;;20.50;91.80;;;;;;5020172;28;20046;-59
2022/08/25 03:29:04;;;;;;;8.52;3.30;;;20.40;91.70;;;;;;5019575;28;20367;-59
2022/08/25 03:31:32;;;;;;;8.02;3.50;;;20.40;91.70;;;;;;5019165;28;20050;-59
2022/08/25 03:33:58;;;;;;;7.65;3.50;;;20.40;91.60;;;;;;5020916;28;20049;-60
2022/08/25 03:36:24;;;;;;;5.38;3.55;;;20.40;91.60;;;;;;5019109;28;20050;-59
2022/08/25 03:38:51;;;;;;;6.25;3.50;;;20.40;91.50;;;;;;5020810;28;20500;-59
2022/08/25 03:41:23;;;;;;;9.38;4.00;;;20.40;91.50;;;;;;5021360;28;20114;-59
2022/08/25 03:43:49;;;;;;;7.90;3.80;;;20.40;91.40;;;;;;5020989;28;20400;-59
2022/08/25 03:46:24;;;;;;;8.07;3.58;;;20.40;91.40;;;;;;5021244;28;20050;-59
2022/08/25 03:48:51;;;;;;;6.72;3.50;;;20.40;91.40;;;;;;5019687;28;20045;-59
2022/08/25 03:51:25;;;;;;;4.65;3.40;;;20.30;91.40;;;;;;5018606;28;20096;-59
2022/08/25 03:53:51;;;;;;;14.73;4.03;;;20.30;91.40;;;;;;5021015;28;20053;-59
2022/08/25 03:56:18;;;;;;;8.73;4.05;;;20.30;91.50;;;;;;5019637;28;20103;-59
2022/08/25 03:58:45;;;;;;;10.45;4.13;;;20.30;91.50;;;;;;5020720;28;20045;-59
2022/08/25 04:01:11;;;;;;;5.32;3.58;;;20.30;91.50;;;;;;5021000;28;20968;-59
2022/08/25 04:03:36;;;;;;;8.68;3.60;;;20.30;91.50;;;;;;5020302;28;20718;-59
2022/08/25 04:06:05;;;;;;;4.45;3.58;;;20.30;91.70;;;;;;5018376;28;20049;-60
2022/08/25 04:08:31;;;;;;;7.05;3.78;;;20.20;91.50;;;;;;5020040;28;20045;-59
2022/08/25 04:10:57;;;;;;;8.60;3.40;;;20.20;91.50;;;;;;5020200;28;20055;-59
2022/08/25 04:13:23;;;;;;;8.50;3.60;;;20.20;91.50;;;;;;5021411;28;20045;-59
2022/08/25 04:15:49;;;;;;;9.80;3.88;;;20.20;91.50;;;;;;5017481;28;20054;-58
2022/08/25 04:18:15;;;;;;;11.50;3.80;;;20.10;91.50;;;;;;5019259;28;20068;-59
2022/08/25 04:20:42;;;;;;;7.47;3.70;;;20.10;91.50;;;;;;5019262;28;20041;-59
2022/08/25 04:23:09;;;;;;;9.50;4.10;;;20.10;91.50;;;;;;5019843;28;20058;-59
2022/08/25 04:25:41;;;;;;;8.25;3.80;;;20.10;91.60;;;;;;5019738;28;20045;-59
2022/08/25 04:28:07;;;;;;;11.83;4.20;;;20.10;91.60;;;;;;5019567;28;20045;-58
2022/08/25 04:30:34;;;;;;;13.38;3.88;;;20.10;91.60;;;;;;5019845;28;20300;-58
2022/08/25 04:33:00;;;;;;;11.27;4.18;;;20.10;91.70;;;;;;5020031;28;20053;-59
2022/08/25 04:35:26;;;;;;;16.15;4.95;;;20.10;91.70;;;;;;5018938;28;20084;-58
2022/08/25 04:37:51;;;;;;;12.88;5.80;;;20.00;91.70;;;;;;5020045;28;20051;-58
2022/08/25 04:40:17;;;;;;;15.77;7.00;;;20.00;91.80;;;;;;5017646;28;20049;-59
2022/08/25 04:42:46;;;;;;;14.48;6.45;;;20.00;91.80;;;;;;5019668;28;20045;-59
2022/08/25 04:45:12;;;;;;;13.05;6.40;;;20.00;91.80;;;;;;5020195;28;20124;-59
2022/08/25 04:47:38;;;;;;;11.82;5.72;;;20.00;91.80;;;;;;5018356;28;20125;-58
2022/08/25 04:50:06;;;;;;;11.48;5.72;;;20.00;91.80;;;;;;5020574;28;20045;-58
2022/08/25 04:52:32;;;;;;;10.07;5.07;;;20.00;91.90;;;;;;5019821;28;20096;-59
2022/08/25 04:54:58;;;;;;;11.77;5.38;;;20.00;91.90;;;;;;5019549;28;20081;-59
2022/08/25 04:57:25;;;;;;;13.25;5.53;;;20.00;91.90;;;;;;5018717;28;20052;-58
2022/08/25 04:59:51;;;;;;;6.55;4.70;;;20.00;91.90;;;;;;5019743;28;20056;-59
2022/08/25 05:02:18;;;;;;;8.93;4.82;;;20.00;91.90;;;;;;5021120;28;20045;-57
2022/08/25 05:04:44;;;;;;;8.07;4.20;;;20.00;92.00;;;;;;5018844;28;20156;-58
2022/08/25 05:07:10;;;;;;;8.27;4.97;;;20.00;92.00;;;;;;5021189;28;20112;-62
2022/08/25 05:09:36;;;;;;;10.05;5.22;;;20.00;92.00;;;;;;5018662;28;20208;-58
2022/08/25 05:12:03;;;;;;;10.00;5.28;;;20.00;92.00;;;;;;5019194;28;20107;-57
2022/08/25 05:14:30;;;;;;;8.25;4.97;;;20.00;92.00;;;;;;5019214;28;20052;-58
2022/08/25 05:16:56;;;;;;;8.27;5.05;;;20.00;92.00;;;;;;5019627;28;20136;-58
2022/08/25 05:19:24;;;;;;;11.60;5.15;;;20.00;92.00;;;;;;5019292;28;20106;-58
2022/08/25 05:21:50;;;;;;;11.38;5.60;;;20.00;92.10;;;;;;5018969;28;20114;-58
2022/08/25 05:24:16;;;;;;;8.90;4.97;;;20.00;92.10;;;;;;5021807;28;20042;-58
2022/08/25 05:26:42;;;;;;;7.85;4.68;;;20.00;92.10;;;;;;5020520;28;20060;-58
2022/08/25 05:29:09;;;;;;;10.23;5.25;;;20.10;92.20;;;;;;5022987;28;20494;-58
2022/08/25 05:31:36;;;;;;;5.80;4.47;;;20.10;92.20;;;;;;5023873;28;20657;-58
2022/08/25 05:34:06;;;;;;;9.00;5.32;;;20.10;92.50;;;;;;5022273;28;20075;-58
2022/08/25 05:36:33;;;;;;;10.00;4.70;;;20.10;92.30;;;;;;5020857;28;20077;-58
2022/08/25 05:38:59;;;;;;;10.00;5.20;;;20.10;92.20;;;;;;5023532;28;20449;-58
2022/08/25 05:41:28;;;;;;;8.10;5.13;;;20.10;92.30;;;;;;5022553;28;20037;-57
2022/08/25 05:43:54;;;;;;;8.27;5.20;;;20.20;92.30;;;;;;5024092;28;20075;-56
2022/08/25 05:46:21;;;;;;;11.30;4.93;;;20.20;92.30;;;;;;5024027;28;20053;-58
2022/08/25 05:48:47;;;;;;;10.15;5.30;;;20.20;92.20;;;;;;5021480;28;20044;-57
2022/08/25 05:51:14;;;;;;;8.75;4.88;;;20.20;92.20;;;;;;5021825;28;20046;-58
2022/08/25 05:53:43;;;;;;;7.93;5.18;;;20.30;92.10;;;;;;5020024;28;20053;-57
2022/08/25 05:56:09;;;;;;;9.32;5.20;;;20.30;92.10;;;;;;5023463;28;20072;-58
2022/08/25 05:58:36;;;;;;;11.25;5.18;;;20.30;92.10;;;;;;5022519;28;20504;-58
2022/08/25 06:03:49;;;;;;;9.73;5.25;;;20.40;92.10;;;;;;5020742;28;20053;-57
2022/08/25 06:06:15;;;;;;;9.02;5.07;;;20.40;92.10;;;;;;5022293;28;20048;-58
2022/08/25 06:08:43;;;;;;;10.00;5.32;;;20.50;92.10;;;;;;5021942;28;20709;-58
2022/08/25 06:11:10;;;;;;;7.75;4.75;;;20.50;92.10;;;;;;5023589;28;20496;-58
2022/08/25 06:13:36;;;;;;;9.93;5.05;;;20.50;92.10;;;;;;5022925;28;20049;-58
2022/08/25 06:16:02;;;;;;;12.27;5.15;;;20.60;92.10;;;;;;5022196;28;20068;-58
2022/08/25 06:18:27;;;;;;;8.90;5.13;;;20.60;92.10;;;;;;5021406;28;20050;-58
2022/08/25 06:20:53;;;;;;;8.43;5.38;;;20.70;92.20;;;;;;5021790;28;20689;-58
2022/08/25 06:23:19;;;;;;;14.90;5.70;;;20.70;92.10;;;;;;5022344;28;20622;-58
2022/08/25 06:25:52;;;;;;;9.30;5.22;;;20.80;92.10;;;;;;5023324;28;20045;-58
2022/08/25 06:28:19;;;;;;;10.93;5.30;;;20.80;91.90;;;;;;5020717;28;20544;-58
2022/08/25 06:30:46;;;;;;;13.32;5.32;;;20.90;91.90;;;;;;5022392;28;20061;-57
2022/08/25 06:33:12;;;;;;;10.15;5.20;;;20.90;91.90;;;;;;5021398;28;20045;-58
2022/08/25 06:35:42;;;;;;;10.48;5.22;;;21.00;91.80;;;;;;5020451;28;20057;-58
2022/08/25 06:38:08;;;;;;;13.32;5.15;;;21.00;91.80;;;;;;5022587;28;20124;-58
2022/08/25 06:40:33;;;;;;;9.30;5.43;;;21.10;91.70;;;;;;5020715;28;20051;-58
2022/08/25 06:42:59;;;;;;;10.57;5.72;;;21.20;91.70;;;;;;5037339;28;20056;-58
2022/08/25 06:45:25;;;;;;;9.13;5.38;;;21.30;91.60;;;;;;5019742;28;20081;-58
2022/08/25 06:47:51;;;;;;;16.42;5.68;;;21.30;91.60;;;;;;5022285;28;20033;-58
2022/08/25 06:50:17;;;;;;;14.50;5.53;;;21.40;91.50;;;;;;5021597;28;20431;-58
2022/08/25 06:52:43;;;;;;;11.07;5.18;;;21.40;91.50;;;;;;5019395;28;20065;-58
2022/08/25 06:55:09;;;;;;;9.95;5.18;;;21.50;91.40;;;;;;5020951;28;20049;-58
2022/08/25 06:57:35;;;;;;;10.30;5.43;;;21.60;91.40;;;;;;5020904;28;20421;-58
2022/08/25 07:00:04;;;;;;;9.13;5.32;;;21.70;91.20;;;;;;5022035;28;20049;-58
2022/08/25 07:02:30;;;;;;;9.82;5.85;;;21.70;91.20;;;;;;5021942;28;20132;-58
2022/08/25 07:04:55;;;;;;;11.48;5.43;;;21.80;91.00;;;;;;5036440;28;20486;-59
2022/08/25 07:07:21;;;;;;;11.05;6.00;;;21.90;90.90;;;;;;5020401;28;20507;-59
2022/08/25 07:09:49;;;;;;;15.20;5.50;;;22.00;90.70;;;;;;5020090;28;20045;-59
2022/08/25 07:12:15;;;;;;;10.27;5.10;;;22.10;90.60;;;;;;5020573;28;20045;-59
2022/08/25 07:14:42;;;;;;;9.07;5.10;;;22.10;90.40;;;;;;5022512;28;20068;-59
2022/08/25 07:17:12;;;;;;;11.57;5.10;;;22.20;90.30;;;;;;5022490;28;20049;-59
2022/08/25 07:19:37;;;;;;;12.05;5.18;;;22.30;90.30;;;;;;5021069;28;20053;-59
2022/08/25 07:22:04;;;;;;;13.75;5.38;;;22.40;90.20;;;;;;5021120;28;20049;-59
2022/08/25 07:24:30;;;;;;;8.63;4.93;;;22.50;90.10;;;;;;5020546;28;20053;-58
2022/08/25 07:26:55;;;;;;;11.18;4.70;;;22.60;90.00;;;;;;5020533;28;20049;-59
2022/08/25 07:29:24;;;;;;;14.77;5.20;;;22.60;89.90;;;;;;5018904;28;20467;-58
2022/08/25 07:31:50;;;;;;;11.15;4.97;;;22.70;89.80;;;;;;5020307;28;20049;-59
2022/08/25 07:37:03;;;;;;;12.63;5.10;;;23.00;89.30;;;;;;5021916;28;20403;-59
2022/08/25 07:39:30;;;;;;;14.00;5.40;;;23.10;89.60;;;;;;5020669;28;20077;-59
2022/08/25 07:41:57;;;;;;;9.43;4.70;;;23.30;89.00;;;;;;5020148;28;20176;-59
2022/08/25 07:44:24;;;;;;;8.07;5.22;;;23.40;88.40;;;;;;5021914;28;20034;-57
2022/08/25 07:46:50;;;;;;;15.68;4.70;;;23.50;88.50;;;;;;5019878;28;20045;-59
2022/08/25 07:49:17;;;;;;;9.50;4.75;;;23.70;87.80;;;;;;5020166;28;20400;-59
2022/08/25 07:51:45;;;;;;;9.98;4.60;;;23.70;87.40;;;;;;5019492;28;20447;-59
2022/08/25 07:54:10;;;;;;;10.70;4.28;;;23.90;87.20;;;;;;5020280;28;20534;-59
2022/08/25 07:56:38;;;;;;;8.93;4.45;;;24.00;87.10;;;;;;5021414;28;20069;-59
2022/08/25 07:59:04;;;;;;;8.27;4.65;;;24.20;86.80;;;;;;5021314;28;20053;-58
2022/08/25 08:01:30;;;;;;;8.70;4.65;;;24.30;86.20;;;;;;5018950;28;20053;-58
2022/08/25 08:03:55;;;;;;;8.45;4.32;;;24.40;86.00;;;;;;5019815;28;21340;-59
2022/08/25 08:06:23;;;;;;;9.00;4.05;;;24.60;85.60;;;;;;5019136;28;20484;-58
2022/08/25 08:08:52;;;;;;;15.88;4.90;;;24.70;85.10;;;;;;5021561;28;20037;-58
2022/08/25 08:11:25;;;;;;;11.98;4.70;;;24.80;84.10;;;;;;5036850;28;20053;-59
2022/08/25 08:13:51;;;;;;;9.57;4.60;;;24.80;83.40;;;;;;5020456;28;20052;-59
2022/08/25 08:16:18;;;;;;;11.55;4.68;;;25.00;83.30;;;;;;5019168;28;20045;-59
2022/08/25 08:18:47;;;;;;;9.45;4.82;;;25.10;83.10;;;;;;5020002;28;20115;-59
2022/08/25 08:21:17;;;;;;;10.98;4.90;;;25.10;82.60;;;;;;5020134;28;20045;-59
2022/08/25 08:23:43;;;;;;;10.77;4.55;;;25.20;82.20;;;;;;5020441;28;20575;-59
2022/08/25 08:26:09;;;;;;;10.77;4.70;;;25.30;82.10;;;;;;5020405;28;20041;-60
2022/08/25 08:28:35;;;;;;;9.68;4.80;;;25.40;81.90;;;;;;5018189;28;20037;-59
2022/08/25 08:31:01;;;;;;;16.83;4.38;;;25.50;81.40;;;;;;5019158;28;20049;-59
2022/08/25 08:33:27;;;;;;;9.05;4.80;;;25.60;80.70;;;;;;5019044;28;20053;-59
2022/08/25 08:36:04;;;;;;;11.38;4.65;;;25.70;80.60;;;;;;5019022;28;20115;-59
2022/08/25 08:38:30;;;;;;;10.02;4.47;;;25.80;80.30;;;;;;5022482;28;20053;-60
2022/08/25 08:44:44;;;;;;;11.18;4.43;;;26.10;79.70;;;;;;5022132;28;20053;-60
2022/08/25 08:47:39;;;;;;;11.57;4.22;;;26.20;78.80;;;;;;5006365;28;20072;-59
2022/08/25 08:50:23;;;;;;;6.10;3.97;;;26.40;78.70;;;;;;5020235;28;20164;-59
2022/08/25 08:53:10;;;;;;;8.27;3.88;;;26.50;78.10;;;;;;5020460;28;20049;-59
2022/08/25 08:55:55;;;;;;;8.10;4.25;;;26.70;77.40;;;;;;5019865;28;20045;-59
2022/08/25 08:58:48;;;;;;;6.57;3.80;;;26.80;76.90;;;;;;5021063;28;20124;-60
2022/08/25 09:01:28;;;;;;;12.93;3.92;;;26.90;76.60;;;;;;5021623;28;20057;-59
2022/08/25 09:04:21;;;;;;;9.98;3.95;;;27.10;76.70;;;;;;5024596;28;20492;-59
2022/08/25 09:06:49;;;;;;;7.93;3.00;;;27.30;77.30;;;;;;5024130;28;20095;-59
2022/08/25 09:09:27;;;;;;;7.57;3.53;;;27.50;76.10;;;;;;5023162;28;20572;-59
2022/08/25 09:12:04;;;;;;;12.30;3.78;;;27.60;75.20;;;;;;5023142;28;20051;-58
2022/08/25 09:15:00;;;;;;;15.73;4.05;;;27.80;75.30;;;;;;5024478;28;20053;-60
2022/08/25 09:17:35;;;;;;;7.25;3.55;;;27.90;74.70;;;;;;5023345;28;20160;-59
2022/08/25 09:20:33;;;;;;;7.93;3.65;;;28.00;73.40;;;;;;5023564;28;20052;-59
2022/08/25 09:23:17;;;;;;;9.35;3.67;;;28.20;73.80;;;;;;5006070;28;20062;-60
2022/08/25 09:25:54;;;;;;;11.55;3.60;;;28.40;72.10;;;;;;5022375;28;20496;-60
2022/08/25 09:28:27;;;;;;;11.65;3.35;;;28.40;71.10;;;;;;5023051;28;20068;-59
2022/08/25 09:31:01;;;;;;;8.55;3.35;;;28.50;70.30;;;;;;5037404;28;20153;-59
2022/08/25 09:33:30;;;;;;;9.07;3.83;;;28.60;70.40;;;;;;5022858;28;20049;-60
2022/08/25 09:35:56;;;;;;;6.72;3.28;;;28.70;70.20;;;;;;5023084;28;20045;-60
2022/08/25 09:38:23;;;;;;;7.70;3.38;;;28.90;69.30;;;;;;5025651;28;20041;-60
2022/08/25 09:40:54;;;;;;;7.63;3.20;;;29.00;68.90;;;;;;5022292;28;20573;-59
2022/08/25 09:43:33;;;;;;;11.18;3.00;;;29.10;68.80;;;;;;5024170;28;20582;-59
2022/08/25 09:46:09;;;;;;;9.68;3.05;;;29.20;68.00;;;;;;5022914;28;20045;-60
2022/08/25 09:48:43;;;;;;;6.53;2.92;;;29.40;67.40;;;;;;5039519;28;20104;-59
2022/08/25 09:51:18;;;;;;;7.22;3.20;;;29.50;67.10;;;;;;5023418;28;20092;-60
2022/08/25 09:54:11;;;;;;;4.60;2.55;;;29.60;65.90;;;;;;5022856;28;20097;-60
2022/08/25 09:56:52;;;;;;;5.30;2.83;;;29.70;65.00;;;;;;5024010;28;20599;-59
2022/08/25 09:59:28;;;;;;;7.13;3.15;;;29.80;65.00;;;;;;5024113;28;20476;-60
2022/08/25 10:01:59;;;;;;;7.20;2.97;;;29.80;64.40;;;;;;5022802;28;20050;-60
2022/08/25 10:04:37;;;;;;;9.13;2.75;;;29.90;64.30;;;;;;5022418;28;20056;-60
2022/08/25 10:07:19;;;;;;;7.53;2.58;;;30.00;63.50;;;;;;5023259;28;20140;-59
2022/08/25 10:09:52;;;;;;;7.45;2.63;;;30.10;62.90;;;;;;5020209;28;20049;-59
2022/08/25 10:12:39;;;;;;;3.92;2.67;;;30.30;62.00;;;;;;5022080;28;20120;-59
2022/08/25 10:15:23;;;;;;;12.82;2.60;;;30.40;62.00;;;;;;5021523;28;20048;-60
2022/08/25 10:17:49;;;;;;;8.45;2.95;;;30.50;61.60;;;;;;5024239;28;20395;-60
2022/08/25 10:20:24;;;;;;;6.75;2.63;;;30.70;61.60;;;;;;5021415;28;20059;-60
2022/08/25 10:22:52;;;;;;;9.10;2.90;;;30.80;59.90;;;;;;5021108;28;20884;-59
2022/08/25 10:25:28;;;;;;;8.40;2.65;;;31.00;60.70;;;;;;5020764;28;20042;-59
2022/08/25 10:28:14;;;;;;;5.63;2.40;;;31.10;59.40;;;;;;5022269;28;20380;-59
2022/08/25 10:30:45;;;;;;;5.38;2.55;;;31.10;58.70;;;;;;5023188;28;20057;-59
2022/08/25 10:33:32;;;;;;;6.22;2.90;;;31.20;58.60;;;;;;5022533;28;20049;-60
2022/08/25 10:36:21;;;;;;;5.95;2.85;;;31.30;58.50;;;;;;5022052;28;20052;-59
2022/08/25 10:38:59;;;;;;;6.38;2.47;;;31.30;57.70;;;;;;4989934;28;20097;-59
2022/08/25 10:41:56;;;;;;;6.30;2.60;;;31.40;58.30;;;;;;5023104;28;20483;-59
2022/08/25 10:47:53;;;;;;;11.88;2.80;;;31.60;58.40;;;;;;5023835;28;20081;-60
2022/08/25 10:50:35;;;;;;;10.35;3.10;;;31.70;57.50;;;;;;5020831;28;20107;-59
2022/08/25 10:53:25;;;;;;;6.90;2.95;;;31.80;57.00;;;;;;5019365;28;20116;-60
2022/08/25 10:56:15;;;;;;;6.90;3.28;;;31.90;57.30;;;;;;5021028;28;20038;-59
2022/08/25 10:59:10;;;;;;;6.28;2.80;;;31.90;57.10;;;;;;5020416;28;20041;-59
2022/08/25 11:01:56;;;;;;;5.95;2.70;;;32.00;57.40;;;;;;5020772;28;20091;-60
2022/08/25 11:04:30;;;;;;;5.22;2.53;;;32.20;56.80;;;;;;5020254;28;20060;-60
2022/08/25 11:07:04;;;;;;;7.45;2.58;;;32.20;56.40;;;;;;5020845;28;20045;-60
2022/08/25 11:09:38;;;;;;;7.82;2.85;;;32.40;56.70;;;;;;5020899;28;20543;-60
2022/08/25 11:12:13;;;;;;;4.95;2.70;;;32.60;56.80;;;;;;5022357;28;20046;-60
2022/08/25 11:14:56;;;;;;;14.23;3.30;;;32.70;55.90;;;;;;5022316;28;20404;-60
2022/08/25 11:17:28;;;;;;;6.90;2.78;;;32.80;55.90;;;;;;5020462;28;20055;-60
2022/08/25 11:20:02;;;;;;;3.88;2.42;;;32.90;55.30;;;;;;5020850;28;20460;-60
2022/08/25 11:22:54;;;;;;;6.65;2.60;;;33.10;56.00;;;;;;5019709;28;20054;-59
2022/08/25 11:25:24;;;;;;;4.50;2.38;;;33.30;54.60;;;;;;5020280;28;20124;-60
2022/08/25 11:28:11;;;;;;;6.32;2.50;;;33.40;53.90;;;;;;5020483;28;20053;-60
2022/08/25 11:30:38;;;;;;;13.30;3.22;;;33.30;54.30;;;;;;5021013;28;20038;-60
2022/08/25 11:33:04;;;;;;;9.00;2.70;;;33.40;53.10;;;;;;5019910;28;20053;-60
2022/08/25 11:35:41;;;;;;;7.10;2.85;;;33.40;53.00;;;;;;5020391;28;20060;-59
2022/08/25 11:38:13;;;;;;;11.52;2.78;;;33.40;52.90;;;;;;5020919;28;20081;-60
2022/08/25 11:40:54;;;;;;;9.68;3.28;;;33.40;53.40;;;;;;5019997;28;20037;-60
2022/08/25 11:43:49;;;;;;;8.30;2.60;;;33.50;53.50;;;;;;5020074;28;20052;-59
2022/08/25 11:46:43;;;;;;;4.70;2.83;;;33.50;53.50;;;;;;5003264;28;20408;-60
2022/08/25 11:49:43;;;;;;;5.25;3.10;;;33.60;53.10;;;;;;5020079;28;20033;-60
2022/08/25 11:52:32;;;;;;;7.75;2.65;;;33.70;53.50;;;;;;5019175;28;20077;-60
2022/08/25 11:55:26;;;;;;;7.35;2.72;;;33.80;54.00;;;;;;5019442;28;20136;-59
2022/08/25 11:58:15;;;;;;;7.18;2.60;;;33.90;54.00;;;;;;5018340;28;20060;-58
2022/08/25 12:00:42;;;;;;;3.80;2.40;;;34.00;53.90;;;;;;5020406;28;20041;-60
2022/08/25 12:03:33;;;;;;;4.22;2.40;;;34.10;52.40;;;;;;5020322;28;20085;-60
2022/08/25 12:06:23;;;;;;;6.80;2.60;;;34.20;51.70;;;;;;5019259;28;20049;-59
2022/08/25 12:09:11;;;;;;;9.27;2.33;;;34.10;51.30;;;;;;5021611;28;20057;-60
2022/08/25 12:11:37;;;;;;;9.45;2.72;;;34.30;51.90;;;;;;5019260;28;20152;-60
2022/08/25 12:14:35;;;;;;;7.53;2.63;;;34.40;51.20;;;;;;5020186;28;20043;-60
2022/08/25 12:17:16;;;;;;;6.93;2.58;;;34.50;50.50;;;;;;5018726;28;20426;-60
2022/08/25 12:19:41;;;;;;;7.55;2.35;;;34.50;50.20;;;;;;5019054;28;20115;-60
2022/08/25 12:22:07;;;;;;;4.25;2.33;;;34.50;49.50;;;;;;5021223;28;20049;-60
2022/08/25 12:24:42;;;;;;;6.15;2.38;;;34.50;50.20;;;;;;5018923;28;20041;-60
2022/08/25 12:27:26;;;;;;;6.65;2.50;;;34.60;49.90;;;;;;5020233;28;20033;-60
2022/08/25 12:30:05;;;;;;;11.32;2.20;;;34.80;50.00;;;;;;5020288;28;20037;-61
2022/08/25 12:32:44;;;;;;;7.28;2.40;;;34.90;50.30;;;;;;5019041;28;20512;-60
2022/08/25 12:35:28;;;;;;;7.65;2.25;;;34.90;49.30;;;;;;5023260;28;20049;-60
2022/08/25 12:38:12;;;;;;;7.57;2.47;;;35.00;49.50;;;;;;5023393;28;20045;-60
2022/08/25 12:40:41;;;;;;;3.95;1.92;;;35.00;49.10;;;;;;5023282;28;20049;-60
2022/08/25 12:43:19;;;;;;;3.50;2.30;;;35.10;49.70;;;;;;5022612;28;20489;-60
2022/08/25 12:46:19;;;;;;;4.20;2.28;;;35.20;49.50;;;;;;5024122;28;20643;-60
2022/08/25 12:48:55;;;;;;;3.80;2.28;;;35.50;49.30;;;;;;5023835;28;20128;-60
2022/08/25 12:51:23;;;;;;;3.67;2.22;;;35.60;49.20;;;;;;5023502;28;20041;-60
2022/08/25 12:54:14;;;;;;;2.40;2.05;;;35.80;48.30;;;;;;5023703;28;20496;-60
2022/08/25 12:56:51;;;;;;;9.05;2.53;;;36.00;47.40;;;;;;5023589;28;20132;-60
2022/08/25 12:59:30;;;;;;;7.53;2.08;;;36.10;46.60;;;;;;5023807;28;20053;-60
2022/08/25 13:02:06;;;;;;;4.75;2.17;;;36.00;46.80;;;;;;5022546;28;20084;-60
2022/08/25 13:05:00;;;;;;;8.77;2.30;;;36.10;46.30;;;;;;5023370;28;20092;-60
2022/08/25 13:07:57;;;;;;;3.17;2.17;;;36.20;46.60;;;;;;5021963;28;20152;-60
2022/08/25 13:10:33;;;;;;;8.35;2.30;;;36.20;45.90;;;;;;5023112;28;20510;-61
2022/08/25 13:13:18;;;;;;;5.30;2.05;;;36.10;46.00;;;;;;5023296;28;20107;-60
2022/08/25 13:15:47;;;;;;;6.03;2.60;;;36.10;46.00;;;;;;5023707;28;20120;-61
2022/08/25 13:18:30;;;;;;;6.60;1.95;;;36.10;46.10;;;;;;5023800;28;20167;-60
2022/08/25 13:21:05;;;;;;;6.22;2.58;;;36.20;45.40;;;;;;5024015;28;20045;-60